Terminal Aerodrome Forecast
Issued by NWS

Home | Current Version | Previous Version | Text Only | Print | Product List | Glossary On
Versions: 1 2 3 4 5 6 7 8 9 10 11 12 13
628
FTAK31 PAJN 250535
TAFAGY
TAF
PAGY 250535Z 2506/2606 20018G26KT P6SM VCSH SCT050 OVC080
     FM250900 21014G22KT P6SM VCSH SCT025 OVC050
     FM260300 21012KT P6SM SCT030 BKN045
      AMD LTD TO CLD VIS AND WIND=

USA.gov is the U.S. government's official web portal to all federal, state and local government web resources and services.